Time;durP1;ratioP1;P1;durP2;ratioP2;P2;SDS_P1;SDS_P2;PMS_P1;PMS_P2;Temp;Humidity;BMP_temperature;BMP_pressure;BME280_temperature;BME280_humidity;BME280_pressure;Samples;Min_cycle;Max_cycle;Signal;HPM_P1;HPM_P2
2022/04/09 00:02:21;;;;;;;1.50;1.40;;;;;;;15.81;46.06;93958.78;5052772;28;20175;-81
2022/04/09 00:04:47;;;;;;;3.47;1.65;;;;;;;16.23;45.93;94018.78;5052458;28;20174;-81
2022/04/09 00:07:13;;;;;;;2.20;1.50;;;;;;;15.85;45.47;93957.16;5052694;28;20650;-84
2022/04/09 00:09:38;;;;;;;3.17;1.35;;;;;;;15.93;45.62;93974.41;5052480;28;20203;-84
2022/04/09 00:12:04;;;;;;;4.95;1.83;;;;;;;16.00;45.60;94017.41;5052590;28;20180;-84
2022/04/09 00:14:29;;;;;;;3.67;1.75;;;;;;;15.55;45.71;93951.06;5052661;28;20203;-84
2022/04/09 00:16:54;;;;;;;4.20;1.95;;;;;;;15.61;46.22;93956.09;5052546;28;20250;-82
2022/04/09 00:19:20;;;;;;;3.63;2.58;;;;;;;15.78;45.80;93985.84;5052470;28;20186;-84
2022/04/09 00:21:46;;;;;;;3.60;1.92;;;;;;;15.76;46.24;94011.84;5034677;28;20171;-84
2022/04/09 00:24:12;;;;;;;1.60;1.50;;;;;;;15.61;46.46;94011.00;5052764;28;20182;-84
2022/04/09 00:26:38;;;;;;;3.58;1.60;;;;;;;15.45;47.02;93967.72;5052329;28;20206;-84
2022/04/09 00:29:03;;;;;;;3.80;1.80;;;;;;;15.76;46.66;94005.72;5052273;28;20259;-84
2022/04/09 00:31:29;;;;;;;3.23;1.77;;;;;;;15.72;46.42;93999.38;5050918;28;20206;-84
2022/04/09 00:33:54;;;;;;;3.00;1.75;;;;;;;15.36;46.55;93946.22;5034440;28;20226;-84
2022/04/09 00:36:20;;;;;;;1.63;1.53;;;;;;;15.34;46.83;93921.81;5052306;28;20258;-84
2022/04/09 00:38:45;;;;;;;3.00;1.50;;;;;;;15.67;46.98;93957.69;5034113;28;20170;-84
2022/04/09 00:41:11;;;;;;;1.85;1.33;;;;;;;15.53;46.02;93942.53;5051985;28;20668;-84
2022/04/09 00:43:40;;;;;;;2.85;1.45;;;;;;;15.90;46.49;93996.19;5051849;28;20175;-82
2022/04/09 00:46:06;;;;;;;2.83;1.70;;;;;;;15.63;46.49;93946.03;5034490;28;20171;-82
2022/04/09 00:48:31;;;;;;;4.47;1.38;;;;;;;15.86;46.50;93976.53;5051808;28;20171;-84
2022/04/09 00:50:58;;;;;;;1.85;1.35;;;;;;;15.84;46.19;93983.97;5051822;28;20254;-85
2022/04/09 00:53:25;;;;;;;3.25;1.45;;;;;;;15.47;46.39;93925.81;5051964;28;20193;-84
2022/04/09 00:58:38;;;;;;;3.63;2.15;;;;;;;15.95;46.77;93996.19;5052387;28;20562;-83
2022/04/09 01:01:04;;;;;;;3.60;1.92;;;;;;;16.05;46.62;93990.09;5051784;28;20543;-82
2022/04/09 01:03:33;;;;;;;1.80;1.40;;;;;;;15.74;46.15;93957.44;5047457;28;20174;-83
2022/04/09 01:05:58;;;;;;;5.63;2.13;;;;;;;16.05;46.20;93993.53;5051886;28;20182;-83
2022/04/09 01:08:24;;;;;;;3.25;1.50;;;;;;;15.56;46.08;93918.97;5051599;28;20569;-83
2022/04/09 01:10:50;;;;;;;5.82;1.60;;;;;;;15.84;46.31;93952.13;5033725;28;20218;-83
2022/04/09 01:13:17;;;;;;;3.35;1.48;;;;;;;15.99;46.33;93977.91;5033681;28;20175;-83
2022/04/09 01:15:43;;;;;;;3.67;2.80;;;;;;;15.61;46.45;93910.19;5051491;28;20183;-83
2022/04/09 01:18:09;;;;;;;4.45;1.77;;;;;;;15.75;46.43;93919.22;5051567;28;20671;-83
2022/04/09 01:20:34;;;;;;;8.68;2.53;;;;;;;15.44;46.66;93878.59;5051436;28;20285;-83
2022/04/09 01:23:00;;;;;;;5.03;2.20;;;;;;;15.59;47.43;93920.28;5051537;28;20171;-83
2022/04/09 01:25:25;;;;;;;4.60;2.17;;;;;;;15.68;47.02;93935.41;5051408;28;20246;-83
2022/04/09 01:27:51;;;;;;;4.20;2.28;;;;;;;15.58;47.33;93916.03;5051254;28;20206;-82
2022/04/09 01:30:17;;;;;;;2.88;2.28;;;;;;;15.35;47.26;93896.88;5033552;28;20623;-82
2022/04/09 01:32:43;;;;;;;5.00;2.60;;;;;;;15.40;47.38;93910.13;5051493;28;20167;-83
2022/04/09 01:35:08;;;;;;;3.97;1.88;;;;;;;15.41;47.51;93911.75;5051123;28;20202;-82
2022/04/09 01:37:34;;;;;;;3.88;2.38;;;;;;;15.76;47.63;93968.56;5033608;28;20224;-82
2022/04/09 01:39:59;;;;;;;6.78;3.72;;;;;;;15.73;48.18;93975.22;5051315;28;20175;-82
2022/04/09 01:42:26;;;;;;;3.90;1.92;;;;;;;15.21;48.20;93913.56;5051376;28;20567;-82
2022/04/09 01:44:53;;;;;;;3.40;2.10;;;;;;;15.45;48.10;93957.09;5051214;28;20168;-82
2022/04/09 01:47:18;;;;;;;6.20;2.53;;;;;;;15.23;48.43;93949.34;5051085;28;20179;-82
2022/04/09 01:49:43;;;;;;;6.20;2.53;;;;;;;15.11;48.43;93932.91;5051258;28;20557;-82
2022/04/09 01:52:09;;;;;;;7.17;6.57;;;;;;;15.07;48.74;93963.63;5051039;28;20182;-82
2022/04/09 01:54:34;;;;;;;77.73;73.73;;;;;;;14.65;49.43;93921.34;5051028;28;20684;-82
2022/04/09 01:57:00;;;;;;;280.00;262.42;;;;;;;14.94;50.12;93985.31;5051101;28;20182;-82
2022/04/09 01:59:25;;;;;;;647.20;589.55;;;;;;;14.60;50.26;93947.81;5051138;28;20623;-82
2022/04/09 02:01:51;;;;;;;934.47;831.92;;;;;;;14.56;50.07;93946.72;5051036;28;20179;-82
2022/04/09 02:04:16;;;;;;;1499.45;999.90;;;;;;;14.53;50.68;93940.09;5032932;28;20179;-81
2022/04/09 02:06:42;;;;;;;1999.90;999.90;;;;;;;14.35;50.77;93938.66;5052499;28;20167;-82
2022/04/09 02:09:11;;;;;;;1999.90;999.90;;;;;;;14.52;51.05;93983.53;5055109;28;20250;-82
2022/04/09 02:11:39;;;;;;;1999.90;999.90;;;;;;;14.46;51.49;93987.19;5053551;28;20237;-82
2022/04/09 02:14:05;;;;;;;1999.90;999.90;;;;;;;14.54;51.68;93988.56;5054821;28;20199;-82
2022/04/09 02:16:31;;;;;;;1999.90;999.90;;;;;;;14.26;51.20;93944.69;5054872;28;20176;-82
2022/04/09 02:18:57;;;;;;;1999.90;999.90;;;;;;;14.06;51.33;93916.25;5054797;28;20182;-82
2022/04/09 02:21:22;;;;;;;1999.90;999.90;;;;;;;14.48;51.77;93987.75;5054610;28;20250;-82
2022/04/09 02:23:47;;;;;;;1999.90;999.90;;;;;;;14.13;51.68;93923.94;5036704;28;20183;-82
2022/04/09 02:26:13;;;;;;;1999.90;999.90;;;;;;;14.05;51.66;93911.19;5054744;28;20175;-82
2022/04/09 02:28:38;;;;;;;1999.90;999.90;;;;;;;14.07;51.75;93922.34;5054556;28;20195;-82
2022/04/09 02:31:04;;;;;;;1999.90;999.90;;;;;;;14.14;51.77;93926.34;5054657;28;20265;-82
2022/04/09 02:33:29;;;;;;;1999.90;999.90;;;;;;;13.90;51.46;93899.47;5054496;28;20268;-82
2022/04/09 02:35:54;;;;;;;1999.90;999.90;;;;;;;14.40;52.30;93980.28;5054790;28;20224;-82
2022/04/09 02:38:20;;;;;;;1999.90;999.90;;;;;;;13.92;52.48;93921.16;5054421;28;20179;-82
2022/04/09 02:40:46;;;;;;;1999.90;999.90;;;;;;;13.64;52.19;93886.31;5054412;28;20217;-82
2022/04/09 02:43:11;;;;;;;1999.90;999.90;;;;;;;14.21;52.76;93971.91;5054210;28;20167;-82
2022/04/09 02:45:37;;;;;;;1999.90;999.90;;;;;;;13.75;52.88;93909.94;5054451;28;20175;-82
2022/04/09 02:48:02;;;;;;;1999.90;999.90;;;;;;;13.59;53.11;93881.78;5054294;28;20178;-82
2022/04/09 02:50:28;;;;;;;1999.90;999.90;;;;;;;13.89;52.96;93920.88;5054217;28;20179;-83
2022/04/09 02:52:53;;;;;;;1999.90;999.90;;;;;;;14.02;53.37;93952.19;5054228;28;20210;-83
2022/04/09 02:55:18;;;;;;;1999.90;999.90;;;;;;;13.79;53.70;93912.88;5036223;28;20194;-83
2022/04/09 02:57:44;;;;;;;1999.90;999.90;;;;;;;13.39;54.09;93860.47;5036187;28;20164;-83
2022/04/09 03:00:11;;;;;;;1999.90;999.90;;;;;;;13.67;53.81;93907.75;5054156;28;20171;-83
2022/04/09 03:02:41;;;;;;;1999.90;999.90;;;;;;;13.69;53.53;93921.53;5053890;28;20587;-83
2022/04/09 03:05:07;;;;;;;1999.90;999.90;;;;;;;13.93;53.81;93965.09;5051254;28;20213;-83
2022/04/09 03:07:33;;;;;;;1999.90;999.90;;;;;;;13.83;53.95;93948.38;5053890;28;20159;-83
2022/04/09 03:09:58;;;;;;;1999.90;999.90;;;;;;;13.66;53.82;93919.41;5035776;28;20278;-83
2022/04/09 03:12:24;;;;;;;1999.90;999.90;;;;;;;13.88;53.68;93956.34;5053677;28;20606;-83
2022/04/09 03:14:49;;;;;;;1999.90;999.90;;;;;;;13.41;54.24;93887.44;5035869;28;20277;-82
2022/04/09 03:17:14;;;;;;;1999.90;999.90;;;;;;;13.48;54.45;93903.91;5053467;28;20604;-82
2022/04/09 03:19:40;;;;;;;1999.90;999.90;;;;;;;13.81;54.22;93959.19;5053725;28;20187;-81
2022/04/09 03:22:05;;;;;;;1999.90;999.90;;;;;;;13.59;54.73;93921.44;5035869;28;20193;-81
2022/04/09 03:24:31;;;;;;;1999.90;999.90;;;;;;;13.36;54.99;93895.34;5053926;28;20571;-81
2022/04/09 03:26:56;;;;;;;1999.90;999.90;;;;;;;13.57;55.25;93924.38;5053518;28;20574;-81
2022/04/09 03:29:22;;;;;;;1999.90;999.90;;;;;;;13.75;54.63;93951.47;5053438;28;20558;-82
2022/04/09 03:31:47;;;;;;;1999.90;999.90;;;;;;;13.73;54.79;93946.44;5053347;28;20576;-82
2022/04/09 03:34:13;;;;;;;1999.90;999.90;;;;;;;13.67;54.73;93946.63;5053548;28;20191;-81
2022/04/09 03:36:39;;;;;;;1999.90;999.90;;;;;;;13.65;54.92;93944.25;5035503;28;20240;-82
2022/04/09 03:39:05;;;;;;;1999.90;999.90;;;;;;;13.58;55.25;93948.94;5035217;28;20227;-82
2022/04/09 03:41:30;;;;;;;1999.90;999.90;;;;;;;13.61;56.00;93948.44;5053074;28;20765;-82
2022/04/09 03:43:56;;;;;;;1999.90;999.90;;;;;;;13.25;55.98;93917.44;5053269;28;20159;-82
2022/04/09 03:46:21;;;;;;;1999.90;999.90;;;;;;;13.38;56.33;93956.69;5053025;28;20183;-82
2022/04/09 03:48:47;;;;;;;1999.90;999.90;;;;;;;13.21;56.56;93952.31;5052987;28;20611;-82
2022/04/09 03:51:12;;;;;;;1999.90;999.90;;;;;;;12.82;56.52;93877.63;5053981;28;20337;-82
2022/04/09 03:53:38;;;;;;;1999.90;999.90;;;;;;;12.94;56.34;93901.25;5052657;28;20241;-82
2022/04/09 03:56:04;;;;;;;1999.90;999.90;;;;;;;12.85;57.09;93921.25;5052705;28;20243;-82
2022/04/09 03:58:30;;;;;;;1999.90;999.90;;;;;;;13.03;57.55;93949.16;5052492;28;20186;-82
2022/04/09 04:00:56;;;;;;;491.63;458.97;;;;;;;13.01;57.89;93967.91;5034762;28;20174;-82
2022/04/09 04:03:22;;;;;;;7.47;6.80;;;;;;;12.80;58.18;93935.16;5052335;28;20175;-82
2022/04/09 04:05:48;;;;;;;5.33;2.10;;;;;;;13.01;58.03;93946.78;5052307;28;20163;-82
2022/04/09 04:08:14;;;;;;;12.60;4.13;;;;;;;13.01;58.07;93941.50;5052356;28;20733;-82
2022/04/09 04:10:39;;;;;;;5.53;2.40;;;;;;;12.61;57.94;93875.03;5034468;28;20797;-82
2022/04/09 04:13:06;;;;;;;5.23;2.20;;;;;;;12.96;58.17;93959.13;5052382;28;20258;-81
2022/04/09 04:15:35;;;;;;;6.00;4.00;;;;;;;12.91;58.59;93953.78;5052237;28;20222;-81
2022/04/09 04:18:00;;;;;;;5.70;2.63;;;;;;;12.71;59.58;93957.00;5052492;28;20250;-82
2022/04/09 04:20:26;;;;;;;4.83;2.20;;;;;;;12.25;59.28;93876.44;5052563;28;20258;-81
2022/04/09 04:22:52;;;;;;;6.37;2.40;;;;;;;12.56;59.39;93936.47;5052083;28;20174;-81
2022/04/09 04:25:18;;;;;;;8.33;2.27;;;;;;;12.71;59.36;93957.00;5052044;28;20179;-81
2022/04/09 04:27:46;;;;;;;3.33;2.10;;;;;;;12.57;60.03;93955.75;5052078;28;20167;-81
2022/04/09 04:30:13;;;;;;;6.37;3.10;;;;;;;12.41;60.05;93901.97;5051327;28;20229;-81
2022/04/09 04:32:39;;;;;;;6.70;3.17;;;;;;;12.89;59.67;93951.38;5033478;28;20175;-81
2022/04/09 04:35:05;;;;;;;5.40;2.20;;;;;;;12.90;58.84;93913.34;5052219;28;20282;-81
2022/04/09 04:37:41;;;;;;;6.60;2.70;;;;;;;13.36;59.20;93949.00;5052011;28;20210;-82
2022/04/09 04:40:07;;;;;;;9.53;3.17;;;;;;;13.69;58.12;93963.03;5051843;28;20169;-82
2022/04/09 04:42:33;;;;;;;5.73;2.70;;;;;;;13.60;56.87;93928.31;5051801;28;20258;-82
2022/04/09 04:44:58;;;;;;;5.10;2.47;;;;;;;13.43;56.82;93914.44;5051865;28;20608;-82
2022/04/09 04:47:24;;;;;;;6.17;2.00;;;;;;;13.73;55.81;93949.09;5051852;28;20289;-82
2022/04/09 04:49:49;;;;;;;3.17;2.40;;;;;;;13.41;55.90;93861.00;5050326;28;20262;-81
2022/04/09 04:52:14;;;;;;;10.63;4.67;;;;;;;14.39;55.05;93938.97;5050355;28;20167;-82
2022/04/09 04:54:40;;;;;;;10.53;4.73;;;;;;;14.85;54.53;93937.34;5051378;28;20195;-82
2022/04/09 04:57:06;;;;;;;12.50;4.03;;;;;;;15.40;52.89;93936.66;5051499;28;20182;-82
2022/04/09 04:59:31;;;;;;;9.93;4.93;;;;;;;15.58;52.25;93889.50;5051576;28;20171;-82
2022/04/09 05:01:57;;;;;;;6.20;3.70;;;;;;;16.10;49.91;93892.63;5051359;28;20603;-82
2022/04/09 05:04:25;;;;;;;8.55;4.00;;;;;;;16.80;48.40;93940.56;5051346;28;20680;-82
2022/04/09 05:06:51;;;;;;;10.80;2.80;;;;;;;17.29;47.06;93943.28;5051487;28;20175;-82
2022/04/09 05:09:16;;;;;;;14.10;6.10;;;;;;;17.62;45.81;93925.81;5051636;28;20642;-82
2022/04/09 05:11:42;;;;;;;7.75;6.78;;;;;;;18.12;44.15;93935.25;5033340;28;20237;-82
2022/04/09 05:14:07;;;;;;;341.00;320.83;;;;;;;18.24;43.18;93932.22;5051759;28;20333;-82
2022/04/09 05:16:33;;;;;;;922.85;850.60;;;;;;;18.21;43.20;93898.94;5051505;28;20179;-82
2022/04/09 05:18:58;;;;;;;1999.90;999.90;;;;;;;18.33;42.38;93912.69;5051218;28;20167;-82
2022/04/09 05:21:25;;;;;;;1999.90;999.90;;;;;;;18.00;42.91;93871.69;5051375;28;20182;-82
2022/04/09 05:23:51;;;;;;;1999.90;999.90;;;;;;;18.24;43.09;93890.41;5051030;28;20194;-82
2022/04/09 05:26:16;;;;;;;1999.90;999.90;;;;;;;18.47;45.02;93876.28;5051235;28;20174;-82
2022/04/09 05:28:41;;;;;;;1999.90;999.90;;;;;;;18.72;42.37;93855.75;5033533;28;20190;-82
2022/04/09 05:31:09;;;;;;;1999.90;999.90;;;;;;;19.29;41.23;93891.28;5050984;28;20254;-82
2022/04/09 05:33:34;;;;;;;1999.90;999.90;;;;;;;19.77;39.94;93907.97;5051313;28;20217;-83
2022/04/09 05:36:01;;;;;;;1999.90;999.90;;;;;;;20.09;40.53;93921.34;5051124;28;20639;-83
2022/04/09 05:38:26;;;;;;;1999.90;999.90;;;;;;;20.19;39.14;93885.63;5051233;28;20210;-83
2022/04/09 05:40:52;;;;;;;1999.90;999.90;;;;;;;20.32;38.31;93895.56;5051117;28;20253;-83
2022/04/09 05:43:17;;;;;;;1999.90;999.90;;;;;;;20.35;38.71;93895.00;5055061;28;20871;-83
2022/04/09 05:45:42;;;;;;;1999.90;999.90;;;;;;;20.45;39.26;93868.06;5055167;28;20163;-83
2022/04/09 05:48:08;;;;;;;1999.90;999.90;;;;;;;21.01;37.27;93923.16;5036595;28;20179;-83
2022/04/09 05:50:33;;;;;;;1999.90;999.90;;;;;;;20.87;36.67;93915.13;5036672;28;20171;-82
2022/04/09 05:52:59;;;;;;;1999.90;999.90;;;;;;;20.83;36.53;93924.84;5052276;28;20175;-81
2022/04/09 05:55:24;;;;;;;1999.90;999.90;;;;;;;20.57;37.83;93921.06;5054952;28;20190;-82
2022/04/09 05:57:50;;;;;;;1999.90;999.90;;;;;;;19.88;38.04;93907.53;5054949;28;20170;-82
2022/04/09 06:00:16;;;;;;;1999.90;999.90;;;;;;;19.73;39.16;93913.09;5054933;28;20175;-81
2022/04/09 06:02:42;;;;;;;1999.90;999.90;;;;;;;19.66;39.63;93927.88;5054894;28;20202;-81
2022/04/09 06:05:08;;;;;;;1999.90;999.90;;;;;;;19.26;39.51;93910.56;5054951;28;20164;-83
2022/04/09 06:07:34;;;;;;;1999.90;999.90;;;;;;;19.38;39.55;93932.25;5036637;28;20171;-82
2022/04/09 06:10:00;;;;;;;1999.90;999.90;;;;;;;19.25;40.36;93938.31;5054693;28;20259;-83
2022/04/09 06:12:26;;;;;;;1999.90;999.90;;;;;;;19.19;40.94;93933.06;5054785;28;20246;-83
2022/04/09 06:14:51;;;;;;;1999.90;999.90;;;;;;;19.14;40.92;93938.44;5054452;28;20210;-82
2022/04/09 06:17:17;;;;;;;1999.90;999.90;;;;;;;19.09;40.52;93927.84;5054713;28;20194;-82
2022/04/09 06:19:43;;;;;;;1999.90;999.90;;;;;;;18.76;40.46;93878.13;5054586;28;20175;-81
2022/04/09 06:22:09;;;;;;;1999.90;999.90;;;;;;;18.93;41.83;93923.78;5054232;28;20168;-81
2022/04/09 06:24:34;;;;;;;1999.90;999.90;;;;;;;18.79;42.33;93882.88;5055116;28;20175;-83
2022/04/09 06:26:59;;;;;;;1999.90;999.90;;;;;;;18.97;40.44;93924.00;5054328;28;20186;-84
2022/04/09 06:29:25;;;;;;;1999.90;999.90;;;;;;;18.70;40.56;93881.91;5053371;28;20202;-82
2022/04/09 06:31:51;;;;;;;1999.90;999.90;;;;;;;18.75;40.92;93893.34;5053740;28;20245;-82
2022/04/09 06:34:17;;;;;;;1999.90;999.90;;;;;;;18.80;41.71;93917.25;5035856;28;20206;-85
2022/04/09 06:36:42;;;;;;;1999.90;999.90;;;;;;;18.68;41.17;93927.50;5034353;28;20186;-83
2022/04/09 06:39:08;;;;;;;1999.90;999.90;;;;;;;18.32;42.29;93911.09;5051982;28;20183;-85
2022/04/09 06:41:35;;;;;;;1999.90;999.90;;;;;;;18.16;42.32;93872.38;5053596;28;20195;-87
2022/04/09 06:44:01;;;;;;;1999.90;999.90;;;;;;;18.14;42.12;93868.38;5048974;28;20651;-88
2022/04/09 06:46:26;;;;;;;1999.90;999.90;;;;;;;18.11;41.27;93875.06;5048704;28;20226;-88
2022/04/09 06:48:52;;;;;;;1999.90;999.90;;;;;;;17.63;43.06;93866.19;5034865;28;20618;-89
2022/04/09 06:51:17;;;;;;;1999.90;999.90;;;;;;;17.66;42.05;93861.06;5035116;28;20214;-89
2022/04/09 06:53:43;;;;;;;1999.90;999.90;;;;;;;17.83;42.29;93862.53;5034454;28;20190;-90
2022/04/09 06:56:08;;;;;;;1999.90;999.90;;;;;;;17.89;41.99;93858.78;5053761;28;20261;-88
2022/04/09 06:58:34;;;;;;;1999.90;999.90;;;;;;;18.36;41.99;93922.78;5034993;28;20249;-88
2022/04/09 07:01:01;;;;;;;1999.90;999.90;;;;;;;18.29;42.40;93926.84;5051749;28;20183;-88
2022/04/09 07:03:27;;;;;;;1999.90;999.90;;;;;;;17.93;42.36;93844.59;5034761;28;20214;-85
2022/04/09 07:05:53;;;;;;;1999.90;999.90;;;;;;;18.78;41.96;93937.28;5052753;28;20178;-86
2022/04/09 07:08:19;;;;;;;1999.90;999.90;;;;;;;18.53;41.06;93834.38;5053522;28;20179;-86
2022/04/09 07:10:45;;;;;;;1999.90;999.90;;;;;;;19.39;40.36;93942.66;5034507;28;20240;-83
2022/04/09 07:13:10;;;;;;;1999.90;999.90;;;;;;;19.49;39.78;93933.75;5053510;28;20257;-83
2022/04/09 07:15:35;;;;;;;1999.90;999.90;;;;;;;19.68;39.81;93926.53;5052609;28;20670;-82
2022/04/09 07:18:01;;;;;;;1999.90;999.90;;;;;;;20.01;40.51;93926.56;5046250;28;20191;-78
2022/04/09 07:20:30;;;;;;;1999.90;999.90;;;;;;;20.10;40.39;93895.41;5044066;28;20266;-78
2022/04/09 07:22:56;;;;;;;1999.90;999.90;;;;;;;20.58;38.24;93915.41;5051114;28;20191;-79
2022/04/09 07:25:21;;;;;;;1999.90;999.90;;;;;;;20.85;39.10;93919.19;5051251;28;20190;-79
2022/04/09 07:27:49;;;;;;;1999.90;999.90;;;;;;;20.96;38.90;93918.69;5052324;28;20168;-80
2022/04/09 07:30:17;;;;;;;1999.90;999.90;;;;;;;20.95;37.76;93895.69;5051936;28;20559;-80
2022/04/09 07:32:43;;;;;;;1999.90;999.90;;;;;;;21.05;38.61;93900.84;5052130;28;20175;-79
2022/04/09 07:35:10;;;;;;;1999.90;999.90;;;;;;;21.17;37.29;93908.41;5051971;28;20202;-81
2022/04/09 07:37:44;;;;;;;1999.90;999.90;;;;;;;21.15;37.10;93899.84;5051853;28;20269;-80
2022/04/09 07:40:11;;;;;;;1999.90;999.90;;;;;;;21.14;39.08;93897.47;5052278;28;20171;-82
2022/04/09 07:42:38;;;;;;;1999.90;999.90;;;;;;;21.05;37.97;93874.09;5052941;28;20163;-83
2022/04/09 07:45:05;;;;;;;1999.90;999.90;;;;;;;21.21;38.40;93898.66;5052750;28;20250;-83
2022/04/09 07:47:30;;;;;;;1999.90;999.90;;;;;;;20.89;38.92;93854.09;5052286;28;20178;-84
2022/04/09 07:49:56;;;;;;;1999.90;999.90;;;;;;;21.06;39.92;93881.03;5052673;28;20181;-82
2022/04/09 07:52:21;;;;;;;1999.90;999.90;;;;;;;20.97;36.84;93837.31;5052454;28;20199;-82
2022/04/09 07:54:47;;;;;;;1999.90;999.90;;;;;;;21.21;36.84;93847.00;5052510;28;20270;-83
2022/04/09 07:57:12;;;;;;;1999.90;999.90;;;;;;;21.23;38.01;93837.59;5034494;28;20171;-83
2022/04/09 07:59:38;;;;;;;1999.90;999.90;;;;;;;21.61;36.86;93872.88;5052285;28;20187;-82
2022/04/09 08:02:03;;;;;;;1999.90;999.90;;;;;;;21.82;38.18;93865.16;5051963;28;20632;-82
2022/04/09 08:04:29;;;;;;;1999.90;999.90;;;;;;;21.92;37.52;93838.09;5051286;28;20162;-82
2022/04/09 08:06:54;;;;;;;1999.90;999.90;;;;;;;22.04;35.62;93824.19;5051827;28;20167;-84
2022/04/09 08:09:19;;;;;;;1999.90;999.90;;;;;;;22.22;34.85;93817.81;5052512;28;20569;-83
2022/04/09 08:11:45;;;;;;;1999.90;999.90;;;;;;;22.23;34.45;93838.13;5051405;28;20741;-84
2022/04/09 08:14:11;;;;;;;1999.90;999.90;;;;;;;22.43;35.36;93844.84;5034761;28;20281;-84
2022/04/09 08:16:38;;;;;;;1999.90;999.90;;;;;;;22.29;36.26;93825.41;5052397;28;20250;-85
2022/04/09 08:19:03;;;;;;;1999.90;999.90;;;;;;;22.46;37.25;93828.16;5051136;28;20159;-83
2022/04/09 08:21:29;;;;;;;1999.90;999.90;;;;;;;22.95;35.95;93878.06;5052149;28;20183;-81
2022/04/09 08:23:54;;;;;;;1999.90;999.90;;;;;;;23.19;35.65;93878.41;5033077;28;20171;-81
2022/04/09 08:26:20;;;;;;;1999.90;999.90;;;;;;;23.58;34.71;93871.41;5050678;28;20183;-81
2022/04/09 08:28:45;;;;;;;1999.90;943.78;;;;;;;23.89;33.56;93882.75;5051468;28;20266;-83
2022/04/09 08:31:10;;;;;;;1999.90;999.90;;;;;;;23.96;32.88;93880.38;5051027;28;20560;-81
2022/04/09 08:33:36;;;;;;;506.73;479.85;;;;;;;23.26;32.55;93877.97;5050791;28;20304;-81
2022/04/09 08:36:02;;;;;;;63.58;59.80;;;;;;;23.18;33.96;93857.25;5051545;28;20228;-82
2022/04/09 08:38:28;;;;;;;8.82;4.80;;;;;;;23.01;33.74;93857.22;5050523;28;20304;-83
2022/04/09 08:40:55;;;;;;;14.50;12.80;;;;;;;22.60;33.20;93847.59;5051227;28;20187;-82
2022/04/09 08:43:20;;;;;;;7.60;3.58;;;;;;;22.29;33.66;93884.41;5050035;28;20186;-82
2022/04/09 08:45:46;;;;;;;8.85;3.38;;;;;;;22.01;34.49;93870.34;5050953;28;20270;-81
2022/04/09 08:48:13;;;;;;;4.05;2.03;;;;;;;21.64;35.65;93856.19;5032647;28;20274;-82
2022/04/09 08:50:43;;;;;;;1.90;1.50;;;;;;;21.74;35.34;93873.91;5051342;28;20183;-86
2022/04/09 08:53:09;;;;;;;2.47;2.28;;;;;;;22.00;35.74;93864.19;5051382;28;20744;-85
2022/04/09 08:55:37;;;;;;;9.55;2.13;;;;;;;22.01;36.60;93848.91;5051040;28;20213;-81
2022/04/09 08:58:04;;;;;;;10.15;1.92;;;;;;;22.31;35.40;93860.75;5049852;28;20274;-83
2022/04/09 09:00:30;;;;;;;4.50;2.05;;;;;;;22.39;35.12;93839.34;5051147;28;20194;-80
2022/04/09 09:02:57;;;;;;;2.42;2.22;;;;;;;22.66;34.08;93834.84;5050209;28;20183;-84
2022/04/09 09:05:31;;;;;;;2.17;1.67;;;;;;;22.98;33.86;93860.53;5034284;28;20182;-83
2022/04/09 09:07:57;;;;;;;4.15;2.70;;;;;;;22.72;33.22;93818.28;5051556;28;20171;-82
2022/04/09 09:10:23;;;;;;;4.47;2.30;;;;;;;22.39;34.33;93820.56;5048451;28;20205;-81
2022/04/09 09:13:05;;;;;;;4.50;1.42;;;;;;;22.57;35.80;93821.41;5030788;28;20194;-81
2022/04/09 09:15:55;;;;;;;3.15;2.40;;;;;;;23.02;32.99;93858.81;5045394;28;20203;-82
2022/04/09 09:18:20;;;;;;;5.38;2.20;;;;;;;23.21;34.50;93865.47;5039613;28;20222;-84
2022/04/09 09:20:58;;;;;;;1.95;1.73;;;;;;;22.31;33.50;93802.53;5020222;28;20207;-83
2022/04/09 09:23:26;;;;;;;3.05;1.77;;;;;;;22.04;34.42;93814.25;5046528;28;20254;-83
2022/04/09 09:25:56;;;;;;;2.70;1.60;;;;;;;22.29;34.51;93860.25;5044610;28;20187;-85
2022/04/09 09:28:32;;;;;;;3.95;1.45;;;;;;;21.86;34.54;93817.91;5035129;28;20228;-85
2022/04/09 09:30:58;;;;;;;6.63;2.05;;;;;;;22.20;35.04;93854.84;5040841;28;20265;-84
2022/04/09 09:33:25;;;;;;;9.02;1.90;;;;;;;21.66;33.72;93786.25;5042770;28;20179;-84
2022/04/09 09:35:59;;;;;;;3.65;1.85;;;;;;;21.52;34.76;93807.75;5024964;28;20261;-85
2022/04/09 09:38:27;;;;;;;7.70;1.92;;;;;;;21.84;35.57;93845.00;5037983;28;20248;-85
2022/04/09 09:40:53;;;;;;;2.17;1.70;;;;;;;21.38;36.40;93785.56;5052451;28;20179;-85
2022/04/09 09:43:20;;;;;;;9.27;2.47;;;;;;;21.91;36.62;93825.78;5039611;28;20240;-85
2022/04/09 09:45:47;;;;;;;9.02;3.50;;;;;;;21.99;37.60;93795.59;5040339;28;20175;-86
2022/04/09 09:48:24;;;;;;;5.45;2.42;;;;;;;22.59;38.09;93811.13;5041406;28;20444;-85
2022/04/09 09:50:51;;;;;;;3.95;1.83;;;;;;;22.82;36.12;93774.31;5029170;28;20179;-85
2022/04/09 09:53:26;;;;;;;6.80;2.05;;;;;;;23.16;35.00;93768.97;5047082;28;20248;-85
2022/04/09 09:55:52;;;;;;;4.18;2.17;;;;;;;23.42;32.44;93786.97;5047078;28;20202;-85
2022/04/09 09:58:20;;;;;;;4.65;1.88;;;;;;;23.18;34.11;93728.34;5047985;28;20163;-86
2022/04/09 10:00:47;;;;;;;5.13;2.97;;;;;;;23.56;32.60;93791.09;5048312;28;20307;-86
2022/04/09 10:03:13;;;;;;;7.18;3.22;;;;;;;23.85;33.28;93824.59;5048633;28;20175;-85
2022/04/09 10:05:40;;;;;;;3.92;2.13;;;;;;;23.87;33.50;93825.06;5031187;28;20175;-85
2022/04/09 10:08:06;;;;;;;4.47;2.17;;;;;;;23.18;35.26;93685.38;5048218;28;20167;-85
2022/04/09 10:10:36;;;;;;;4.03;3.40;;;;;;;23.82;32.59;93763.38;5048384;28;20266;-85
2022/04/09 10:13:04;;;;;;;5.00;4.60;;;;;;;24.08;31.50;93809.81;5048723;28;20179;-85
2022/04/09 10:15:30;;;;;;;4.65;2.65;;;;;;;23.35;32.12;93708.75;5048284;28;20207;-86
2022/04/09 10:17:58;;;;;;;8.57;6.03;;;;;;;23.91;31.20;93809.84;5048459;28;20179;-86
2022/04/09 10:20:29;;;;;;;4.97;3.47;;;;;;;23.61;32.08;93772.09;5030504;28;20693;-86
2022/04/09 10:23:01;;;;;;;6.03;5.53;;;;;;;23.87;31.27;93804.31;5029236;28;20266;-85
2022/04/09 10:25:29;;;;;;;4.47;1.77;;;;;;;23.92;33.63;93809.53;5048167;28;20243;-85
2022/04/09 10:28:04;;;;;;;4.53;2.35;;;;;;;23.58;31.32;93751.25;5050434;28;20233;-84
2022/04/09 10:30:41;;;;;;;4.82;1.80;;;;;;;23.53;32.72;93742.56;5051412;28;20600;-84
2022/04/09 10:33:24;;;;;;;27.25;25.80;;;;;;;23.87;30.53;93784.72;5051454;28;20309;-84
2022/04/09 10:35:50;;;;;;;11.55;9.20;;;;;;;23.73;30.78;93766.09;5053592;28;20206;-87
2022/04/09 10:38:17;;;;;;;168.73;160.75;;;;;;;23.34;29.67;93734.84;5054073;28;20171;-82
2022/04/09 10:40:42;;;;;;;6.38;2.58;;;;;;;23.54;31.93;93787.94;5033132;28;20654;-83
2022/04/09 10:43:08;;;;;;;5.57;1.98;;;;;;;23.65;32.56;93797.25;5052920;28;20198;-82
2022/04/09 10:46:02;;;;;;;14.30;13.13;;;;;;;23.50;29.29;93786.22;5052911;28;20176;-82
2022/04/09 10:48:39;;;;;;;117.70;111.95;;;;;;;23.23;29.35;93771.97;5052600;28;20190;-83
2022/04/09 10:51:12;;;;;;;10.20;9.40;;;;;;;22.79;30.34;93734.66;5035630;28;20662;-82
2022/04/09 10:53:45;;;;;;;117.72;111.93;;;;;;;22.85;30.05;93768.28;5053778;28;20166;-82
2022/04/09 10:56:15;;;;;;;3.67;3.22;;;;;;;22.87;31.43;93766.09;5049867;28;20661;-82
2022/04/09 10:59:00;;;;;;;11.80;10.98;;;;;;;22.63;30.82;93771.88;5053417;28;20667;-81
2022/04/09 11:01:48;;;;;;;25.77;24.42;;;;;;;22.62;30.47;93762.22;5054201;28;20182;-82
2022/04/09 11:07:06;;;;;;;5.07;4.57;;;;;;;22.29;30.76;93771.78;5050557;28;20565;-81
2022/04/09 11:10:06;;;;;;;8.05;2.83;;;;;;;22.29;31.11;93763.72;5034921;28;20195;-81
2022/04/09 11:12:37;;;;;;;3.63;1.85;;;;;;;22.51;31.00;93763.63;5035785;28;20602;-82
2022/04/09 11:15:15;;;;;;;4.47;1.65;;;;;;;22.24;29.68;93707.53;5052950;28;20191;-83
2022/04/09 11:17:51;;;;;;;3.90;1.80;;;;;;;22.04;31.33;93698.97;5052653;28;20258;-81